createdAt,value
2022-10-08T03:02:37.070Z,14.90
2022-10-08T03:05:08.857Z,16.70
2022-10-08T03:10:06.629Z,14.95
2022-10-08T03:12:34.680Z,25.58
2022-10-08T03:15:01.433Z,20.67
2022-10-08T03:17:44.805Z,18.27
2022-10-08T03:20:12.275Z,16.85
2022-10-08T03:22:38.883Z,15.27
2022-10-08T03:25:05.987Z,15.93
2022-10-08T03:27:32.465Z,14.77
2022-10-08T03:29:58.870Z,19.27
2022-10-08T03:32:26.317Z,14.15
2022-10-08T03:34:53.522Z,20.42
2022-10-08T03:37:20.854Z,17.30
2022-10-08T03:39:47.448Z,17.75
2022-10-08T03:42:13.995Z,15.70
2022-10-08T03:44:40.422Z,14.20
2022-10-08T03:47:06.840Z,20.17
2022-10-08T03:49:34.685Z,12.35
2022-10-08T03:52:01.182Z,14.85
2022-10-08T03:54:27.631Z,18.08
2022-10-08T03:56:54.028Z,16.48
2022-10-08T03:59:20.479Z,17.23
2022-10-08T04:01:46.977Z,21.10
2022-10-08T04:04:13.585Z,16.25
2022-10-08T04:06:40.027Z,17.27
2022-10-08T04:09:06.560Z,19.17
2022-10-08T04:11:33.010Z,22.58
2022-10-08T04:14:00.299Z,17.67
2022-10-08T04:16:26.813Z,17.20
2022-10-08T04:18:53.257Z,16.38
2022-10-08T04:21:20.280Z,25.67
2022-10-08T04:23:49.557Z,24.05
2022-10-08T04:26:16.416Z,13.65
2022-10-08T04:28:44.437Z,13.25
2022-10-08T04:31:19.259Z,20.38
2022-10-08T04:33:46.595Z,15.57
2022-10-08T04:36:22.335Z,19.83
2022-10-08T04:38:49.108Z,24.15
2022-10-08T04:41:28.315Z,13.55
2022-10-08T04:43:58.645Z,20.38
2022-10-08T04:46:25.139Z,16.05
2022-10-08T04:48:54.065Z,23.52
2022-10-08T04:51:23.265Z,23.27
2022-10-08T04:53:50.369Z,17.25
2022-10-08T04:56:23.625Z,10.73
2022-10-08T04:58:50.586Z,18.50
2022-10-08T05:01:19.474Z,20.15
2022-10-08T05:03:48.752Z,14.65
2022-10-08T05:06:16.863Z,24.60
2022-10-08T05:08:44.653Z,16.98
2022-10-08T05:11:11.624Z,19.55
2022-10-08T05:13:38.151Z,18.17
2022-10-08T05:16:10.285Z,23.52
2022-10-08T05:18:38.071Z,19.70
2022-10-08T05:21:06.641Z,18.83
2022-10-08T05:23:33.890Z,15.23
2022-10-08T05:26:02.345Z,20.88
2022-10-08T05:28:29.876Z,22.33
2022-10-08T05:31:00.998Z,14.25
2022-10-08T05:33:27.492Z,14.30
2022-10-08T05:35:54.070Z,15.15
2022-10-08T05:38:20.662Z,18.40
2022-10-08T05:40:47.233Z,20.90
2022-10-08T05:43:13.897Z,19.73
2022-10-08T05:45:40.316Z,18.35
2022-10-08T05:48:06.778Z,18.15
2022-10-08T05:50:36.422Z,16.88
2022-10-08T05:53:05.380Z,19.73
2022-10-08T05:55:35.150Z,14.18
2022-10-08T05:58:01.639Z,14.25
2022-10-08T06:00:28.241Z,13.32
2022-10-08T06:02:54.711Z,17.92
2022-10-08T06:05:21.975Z,18.13
2022-10-08T06:07:48.541Z,13.90
2022-10-08T06:10:15.041Z,16.00
2022-10-08T06:12:41.455Z,17.90
2022-10-08T06:15:08.133Z,17.70
2022-10-08T06:17:34.650Z,14.77
2022-10-08T06:20:01.118Z,16.48
2022-10-08T06:22:27.509Z,19.65
2022-10-08T06:24:54.110Z,20.67
2022-10-08T06:27:20.540Z,15.95
2022-10-08T06:29:46.951Z,28.92
2022-10-08T06:32:13.411Z,16.73
2022-10-08T06:34:41.964Z,19.25
2022-10-08T06:37:08.471Z,19.92
2022-10-08T06:39:34.950Z,17.05
2022-10-08T06:42:01.495Z,19.17
2022-10-08T06:44:27.928Z,16.40
2022-10-08T06:46:54.423Z,16.05
2022-10-08T06:49:22.142Z,14.90
2022-10-08T06:51:48.604Z,20.23
2022-10-08T06:54:15.427Z,19.33
2022-10-08T06:56:41.887Z,17.45
2022-10-08T06:59:08.470Z,15.77
2022-10-08T07:01:36.074Z,14.43
2022-10-08T07:04:04.347Z,22.20
2022-10-08T07:06:31.343Z,21.30
2022-10-08T07:09:00.158Z,13.80
2022-10-08T07:11:27.421Z,13.63
2022-10-08T07:13:55.141Z,14.63
2022-10-08T07:16:24.212Z,15.85
2022-10-08T07:18:52.561Z,18.88
2022-10-08T07:21:20.715Z,15.75
2022-10-08T07:23:47.278Z,14.32
2022-10-08T07:26:16.198Z,17.40
2022-10-08T07:29:04.563Z,17.63
2022-10-08T07:31:33.822Z,13.48
2022-10-08T07:34:01.855Z,15.60
2022-10-08T07:36:29.278Z,13.57
2022-10-08T07:38:57.935Z,16.33
2022-10-08T07:41:25.045Z,14.88
2022-10-08T07:43:53.117Z,12.02
2022-10-08T07:46:20.258Z,15.02
2022-10-08T07:48:46.948Z,16.27
2022-10-08T07:51:19.451Z,11.35
2022-10-08T07:53:46.582Z,13.55
2022-10-08T07:56:15.735Z,11.27
2022-10-08T07:58:42.265Z,14.88
2022-10-08T08:01:14.023Z,14.38
2022-10-08T08:03:40.625Z,16.77
2022-10-08T08:06:10.884Z,14.20
2022-10-08T08:08:39.260Z,16.48
2022-10-08T08:11:07.493Z,14.48
2022-10-08T08:13:37.454Z,13.50
2022-10-08T08:16:07.304Z,18.48
2022-10-08T08:18:36.682Z,12.50
2022-10-08T08:21:09.839Z,14.27
2022-10-08T08:23:39.645Z,13.30
2022-10-08T08:26:10.071Z,11.93
2022-10-08T08:28:37.019Z,14.50
2022-10-08T08:31:17.939Z,13.50
2022-10-08T08:33:50.832Z,10.05
2022-10-08T08:36:19.068Z,15.73
2022-10-08T08:38:46.445Z,21.02
2022-10-08T08:41:22.143Z,16.20
2022-10-08T08:43:48.925Z,12.95
2022-10-08T08:46:20.991Z,16.02
2022-10-08T08:48:48.206Z,21.70
2022-10-08T08:51:16.446Z,11.65
2022-10-08T08:53:43.130Z,15.48
2022-10-08T08:56:15.799Z,16.13
2022-10-08T08:58:49.816Z,16.40
2022-10-08T09:01:19.588Z,19.75
2022-10-08T09:03:51.007Z,22.27
2022-10-08T09:06:22.689Z,15.35
2022-10-08T09:09:04.232Z,18.05
2022-10-08T09:11:30.794Z,15.85
2022-10-08T09:14:27.029Z,14.70
2022-10-08T09:16:56.057Z,21.88
2022-10-08T09:19:22.733Z,16.05
2022-10-08T09:21:49.191Z,21.45
2022-10-08T09:24:16.744Z,19.80
2022-10-08T09:26:43.479Z,17.05
2022-10-08T09:29:31.277Z,20.55
2022-10-08T09:31:57.889Z,16.55
2022-10-08T09:34:24.451Z,17.65
2022-10-08T09:37:03.422Z,21.02
2022-10-08T09:39:32.711Z,18.65
2022-10-08T09:42:19.481Z,16.85
2022-10-08T09:44:59.047Z,16.30
2022-10-08T09:47:27.088Z,16.02
2022-10-08T09:50:15.883Z,18.60
2022-10-08T09:52:43.031Z,15.02
2022-10-08T09:55:31.404Z,16.13
2022-10-08T09:58:04.050Z,14.75
2022-10-08T10:00:35.517Z,22.58
2022-10-08T10:03:04.917Z,15.32
2022-10-08T10:05:36.025Z,13.52
2022-10-08T10:08:02.910Z,15.38
2022-10-08T10:10:34.556Z,16.30
2022-10-08T10:16:14.371Z,13.25
2022-10-08T10:18:55.930Z,18.98
2022-10-08T10:21:40.425Z,21.50
2022-10-08T10:24:15.427Z,16.85
2022-10-08T10:26:44.171Z,16.63
2022-10-08T10:29:17.993Z,26.63
2022-10-08T10:31:50.928Z,17.75
2022-10-08T10:34:30.568Z,19.77
2022-10-08T10:37:01.990Z,16.52
2022-10-08T10:39:33.752Z,17.40
2022-10-08T10:42:21.295Z,22.67
2022-10-08T10:44:56.177Z,14.52
2022-10-08T10:47:29.617Z,18.27
2022-10-08T10:50:00.302Z,16.70
2022-10-08T10:52:39.558Z,18.02
2022-10-08T10:55:27.936Z,18.30
2022-10-08T10:58:00.523Z,14.85
2022-10-08T11:00:48.025Z,10.82
2022-10-08T11:03:38.442Z,21.77
2022-10-08T11:06:26.245Z,17.75
2022-10-08T11:09:19.235Z,14.70
2022-10-08T11:11:52.381Z,16.98
2022-10-08T11:14:42.590Z,16.02
2022-10-08T11:17:31.948Z,17.90
2022-10-08T11:20:11.112Z,16.02
2022-10-08T11:23:00.465Z,15.77
2022-10-08T11:29:00.171Z,19.85
2022-10-08T11:31:45.266Z,13.82
2022-10-08T11:34:29.390Z,14.05
2022-10-08T11:37:13.811Z,16.67
2022-10-08T11:40:03.308Z,22.30
2022-10-08T11:42:45.025Z,18.95
2022-10-08T11:45:24.032Z,25.10
2022-10-08T11:47:54.390Z,19.35
2022-10-08T11:50:28.673Z,18.30
2022-10-08T11:53:09.707Z,15.00
2022-10-08T11:55:37.738Z,16.42
2022-10-08T11:58:08.814Z,22.70
2022-10-08T12:00:46.614Z,22.90
2022-10-08T12:03:33.920Z,17.98
2022-10-08T12:06:25.252Z,17.52
2022-10-08T12:08:54.673Z,20.05
2022-10-08T12:11:30.019Z,13.40
2022-10-08T12:14:11.803Z,21.75
2022-10-08T12:19:32.469Z,18.80
2022-10-08T12:22:02.342Z,13.55
2022-10-08T12:24:38.194Z,17.45
2022-10-08T12:27:16.865Z,16.85
2022-10-08T12:29:56.883Z,16.63
2022-10-08T12:32:29.351Z,15.30
2022-10-08T12:34:56.514Z,14.38
2022-10-08T12:37:31.980Z,12.75
2022-10-08T12:40:09.353Z,13.95
2022-10-08T12:42:38.368Z,18.75
2022-10-08T12:45:17.633Z,18.10
2022-10-08T12:48:19.404Z,17.98
2022-10-08T12:51:03.390Z,11.68
2022-10-08T12:53:30.279Z,12.38
2022-10-08T12:55:58.431Z,13.13
2022-10-08T12:58:29.115Z,15.13
2022-10-08T13:00:59.768Z,9.55
2022-10-08T13:03:26.356Z,11.70
2022-10-08T13:05:55.229Z,18.90
2022-10-08T13:08:29.562Z,13.38
2022-10-08T13:10:57.986Z,12.65
2022-10-08T13:13:44.844Z,11.77
2022-10-08T13:16:15.549Z,12.80
2022-10-08T13:18:45.664Z,12.83
2022-10-08T13:21:24.013Z,12.30
2022-10-08T13:23:51.308Z,9.95
2022-10-08T13:26:37.735Z,12.90
2022-10-08T13:29:22.327Z,10.55
2022-10-08T13:31:56.178Z,18.05
2022-10-08T13:34:24.822Z,10.05
2022-10-08T13:36:57.349Z,13.10
2022-10-08T13:39:49.616Z,9.20
2022-10-08T13:42:18.572Z,17.42
2022-10-08T13:44:45.621Z,12.07
2022-10-08T13:47:18.050Z,7.38
2022-10-08T13:49:44.788Z,6.50
2022-10-08T13:52:21.471Z,12.25
2022-10-08T13:54:49.650Z,13.02
2022-10-08T13:57:16.187Z,9.23
2022-10-08T13:59:42.966Z,14.48
2022-10-08T14:02:13.943Z,12.10
2022-10-08T14:04:40.505Z,17.02
2022-10-08T14:07:20.085Z,10.07
2022-10-08T14:09:46.554Z,9.60
2022-10-08T14:12:12.979Z,13.90
2022-10-08T14:14:39.430Z,10.30
2022-10-08T14:17:06.035Z,14.93
2022-10-08T14:19:32.469Z,14.65
2022-10-08T14:21:59.427Z,13.00
2022-10-08T14:24:25.953Z,13.35
2022-10-08T14:26:52.738Z,8.27
2022-10-08T14:29:19.182Z,17.45
2022-10-08T14:31:45.738Z,12.95
2022-10-08T14:34:12.308Z,14.02
2022-10-08T14:36:41.755Z,10.40
2022-10-08T14:39:09.854Z,15.93
2022-10-08T14:41:36.704Z,11.73
2022-10-08T14:44:03.191Z,10.02
2022-10-08T14:46:29.644Z,8.52
2022-10-08T14:48:56.198Z,4.28
2022-10-08T14:51:22.671Z,6.63
2022-10-08T14:53:50.222Z,14.52
2022-10-08T14:56:16.778Z,9.15
2022-10-08T14:58:43.268Z,8.48
2022-10-08T15:01:10.200Z,8.13
2022-10-08T15:03:36.756Z,4.80
2022-10-08T15:06:03.368Z,7.88
2022-10-08T15:08:29.960Z,6.38
2022-10-08T15:10:56.397Z,6.90
2022-10-08T15:13:22.967Z,8.68
2022-10-08T15:15:49.388Z,7.13
2022-10-08T15:18:15.870Z,10.35
2022-10-08T15:20:43.043Z,7.32
2022-10-08T15:23:10.450Z,10.27
2022-10-08T15:25:37.411Z,8.32
2022-10-08T15:28:04.281Z,5.80
2022-10-08T15:30:30.909Z,4.55
2022-10-08T15:33:03.004Z,5.72
2022-10-08T15:35:33.364Z,7.85
2022-10-08T15:37:59.899Z,7.85
2022-10-08T15:40:28.623Z,6.07
2022-10-08T15:42:55.054Z,7.10
2022-10-08T15:45:21.628Z,7.75
2022-10-08T15:47:51.070Z,3.15
2022-10-08T15:50:17.540Z,5.45
2022-10-08T15:52:46.351Z,6.75
2022-10-08T15:55:13.255Z,3.92
2022-10-08T15:57:39.779Z,4.50
2022-10-08T16:00:06.829Z,4.32
2022-10-08T16:02:33.401Z,7.53
2022-10-08T16:04:59.979Z,3.75
2022-10-08T16:07:26.395Z,3.78
2022-10-08T16:09:52.855Z,6.68
2022-10-08T16:12:19.288Z,5.38
2022-10-08T16:14:45.712Z,4.22
2022-10-08T16:17:12.170Z,5.90
2022-10-08T16:19:38.689Z,5.57
2022-10-08T16:22:05.517Z,6.60
2022-10-08T16:24:32.027Z,3.65
2022-10-08T16:26:58.479Z,7.43
2022-10-08T16:29:24.906Z,4.85
2022-10-08T16:31:51.473Z,9.25
2022-10-08T16:34:20.675Z,5.13
2022-10-08T16:36:51.146Z,4.95
2022-10-08T16:39:20.791Z,2.60
2022-10-08T16:41:48.157Z,4.18
2022-10-08T16:44:16.851Z,7.53
2022-10-08T16:46:48.341Z,2.60
2022-10-08T16:49:25.027Z,5.28
2022-10-08T16:51:58.722Z,4.22
2022-10-08T16:54:25.740Z,5.30
2022-10-08T16:56:52.160Z,5.15
2022-10-08T16:59:21.383Z,4.78
2022-10-08T17:01:50.643Z,3.13
2022-10-08T17:04:18.239Z,8.55
2022-10-08T17:06:44.849Z,3.28
2022-10-08T17:09:14.527Z,6.30
2022-10-08T17:11:41.907Z,3.70
2022-10-08T17:14:10.270Z,4.00
2022-10-08T17:16:37.326Z,10.23
2022-10-08T17:19:04.314Z,14.90
2022-10-08T17:21:33.030Z,3.78
2022-10-08T17:24:01.740Z,2.50
2022-10-08T17:26:29.559Z,5.95
2022-10-08T17:28:56.055Z,6.20
2022-10-08T17:31:29.299Z,7.43
2022-10-08T17:33:55.809Z,5.32
2022-10-08T17:36:25.317Z,3.22
2022-10-08T17:38:53.377Z,6.07
2022-10-08T17:41:25.108Z,5.40
2022-10-08T17:43:52.965Z,5.97
2022-10-08T17:46:23.495Z,7.22
2022-10-08T17:48:50.791Z,7.75
2022-10-08T17:51:20.215Z,4.85
2022-10-08T17:54:01.606Z,4.63
2022-10-08T17:56:28.848Z,4.50
2022-10-08T17:58:56.144Z,5.65
2022-10-08T18:01:31.959Z,8.60
2022-10-08T18:04:01.204Z,5.35
2022-10-08T18:06:29.052Z,9.45
2022-10-08T18:08:57.093Z,7.68
2022-10-08T18:11:24.368Z,7.20
2022-10-08T18:13:51.122Z,5.10
2022-10-08T18:16:19.077Z,8.02
2022-10-08T18:18:46.858Z,4.53
2022-10-08T18:21:16.566Z,9.65
2022-10-08T18:23:43.566Z,10.95
2022-10-08T18:26:34.828Z,12.50
2022-10-08T18:29:04.440Z,10.45
2022-10-08T18:31:32.972Z,5.95
2022-10-08T18:34:08.647Z,9.73
2022-10-08T18:36:37.159Z,6.20
2022-10-08T18:39:06.978Z,5.88
2022-10-08T18:41:38.030Z,10.05
2022-10-08T18:44:06.310Z,7.15
2022-10-08T18:46:36.857Z,8.48
2022-10-08T18:49:04.721Z,5.25
2022-10-08T18:51:31.725Z,6.45
2022-10-08T18:53:59.289Z,12.18
2022-10-08T18:56:31.220Z,7.90
2022-10-08T18:59:03.858Z,8.63
2022-10-08T19:01:41.174Z,9.57
2022-10-08T19:04:11.883Z,9.90
2022-10-08T19:06:39.931Z,7.30
2022-10-08T19:09:07.053Z,12.85
2022-10-08T19:11:44.644Z,12.40
2022-10-08T19:14:13.639Z,8.23
2022-10-08T19:16:41.252Z,6.30
2022-10-08T19:19:14.685Z,8.57
2022-10-08T19:21:41.849Z,10.20
2022-10-08T19:24:12.382Z,7.47
2022-10-08T19:26:38.792Z,13.00
2022-10-08T19:29:05.327Z,7.38
2022-10-08T19:31:34.021Z,8.20
2022-10-08T19:34:05.908Z,7.40
2022-10-08T19:36:37.504Z,7.05
2022-10-08T19:39:06.217Z,11.93
2022-10-08T19:41:32.918Z,11.32
2022-10-08T19:43:59.653Z,8.25
2022-10-08T19:46:27.334Z,13.93
2022-10-08T19:48:59.691Z,7.07
2022-10-08T19:51:28.126Z,8.15
2022-10-08T19:53:55.450Z,4.70
2022-10-08T19:56:22.535Z,5.90
2022-10-08T19:58:53.051Z,7.15
2022-10-08T20:01:22.021Z,10.98
2022-10-08T20:03:49.236Z,5.50
2022-10-08T20:06:23.241Z,7.47
2022-10-08T20:08:54.155Z,9.02
2022-10-08T20:11:21.173Z,9.85
2022-10-08T20:13:49.189Z,9.02
2022-10-08T20:16:24.250Z,8.18
2022-10-08T20:19:01.421Z,10.95
2022-10-08T20:21:30.266Z,8.43
2022-10-08T20:23:57.215Z,11.73
2022-10-08T20:26:35.354Z,14.30
2022-10-08T20:29:16.975Z,26.35
2022-10-08T20:31:46.621Z,7.85
2022-10-08T20:34:17.595Z,6.65
2022-10-08T20:36:48.276Z,11.93
2022-10-08T20:39:16.799Z,10.05
2022-10-08T20:41:43.614Z,9.98
2022-10-08T20:44:10.336Z,10.57
2022-10-08T20:46:37.657Z,13.35
2022-10-08T20:49:04.965Z,9.30
2022-10-08T20:51:32.853Z,4.40
2022-10-08T20:54:05.428Z,9.43
2022-10-08T20:56:38.443Z,9.32
2022-10-08T20:59:05.426Z,8.23
2022-10-08T21:01:35.465Z,11.30
2022-10-08T21:04:02.305Z,10.05
2022-10-08T21:06:36.146Z,10.90
2022-10-08T21:09:02.746Z,10.82
2022-10-08T21:11:30.263Z,9.90
2022-10-08T21:13:59.475Z,6.75
2022-10-08T21:16:28.301Z,10.05
2022-10-08T21:18:59.901Z,11.30
2022-10-08T21:21:27.709Z,11.55
2022-10-08T21:23:54.139Z,11.90
2022-10-08T21:26:24.001Z,9.05
2022-10-08T21:28:53.209Z,11.10
2022-10-08T21:31:20.905Z,8.48
2022-10-08T21:33:49.250Z,9.48
2022-10-08T21:36:29.451Z,15.32
2022-10-08T21:38:56.570Z,6.45
2022-10-08T21:41:25.005Z,8.38
2022-10-08T21:43:54.145Z,12.35
2022-10-08T21:46:22.866Z,11.10
2022-10-08T21:49:08.182Z,8.60
2022-10-08T21:51:35.396Z,10.18
2022-10-08T21:54:03.563Z,9.27
2022-10-08T21:56:32.183Z,10.20
2022-10-08T21:59:00.467Z,24.00
